Time;durP1;ratioP1;P1;durP2;ratioP2;P2;SDS_P1;SDS_P2;PMS_P1;PMS_P2;Temp;Humidity;BMP_temperature;BMP_pressure;BME280_temperature;BME280_humidity;BME280_pressure;Samples;Min_cycle;Max_cycle;Signal;HPM_P1;HPM_P2
2021/10/19 00:01:41;;;;;;;22.17;10.85;;;;;;;;;;5023936;28;20029;-62
2021/10/19 00:04:07;;;;;;;26.10;11.85;;;;;;;;;;5022262;28;20025;-62
2021/10/19 00:06:32;;;;;;;27.25;11.52;;;;;;;;;;5022861;28;20075;-61
2021/10/19 00:09:00;;;;;;;24.35;11.23;;;;;;;;;;5004737;28;20052;-61
2021/10/19 00:11:25;;;;;;;24.33;11.27;;;;;;;;;;5008107;28;20098;-62
2021/10/19 00:13:51;;;;;;;26.38;11.82;;;;;;;;;;5008676;28;20530;-62
2021/10/19 00:16:17;;;;;;;25.88;12.10;;;;;;;;;;5024250;28;20028;-61
2021/10/19 00:18:47;;;;;;;28.33;12.70;;;;;;;;;;4987302;28;20040;-61
2021/10/19 00:21:17;;;;;;;24.52;11.35;;;;;;;;;;5024015;28;20029;-61
2021/10/19 00:23:50;;;;;;;26.42;12.00;;;;;;;;;;5005736;28;20531;-61
2021/10/19 00:26:20;;;;;;;25.23;12.10;;;;;;;;;;5022016;28;20120;-61
2021/10/19 00:28:53;;;;;;;27.02;12.60;;;;;;;;;;5001554;28;20036;-61
2021/10/19 00:31:18;;;;;;;24.23;12.38;;;;;;;;;;5023952;28;20465;-61
2021/10/19 00:33:48;;;;;;;29.13;13.18;;;;;;;;;;4993183;28;20119;-61
2021/10/19 00:36:18;;;;;;;22.30;11.23;;;;;;;;;;5003309;28;20389;-61
2021/10/19 00:38:44;;;;;;;26.23;10.80;;;;;;;;;;5021873;28;20139;-61
2021/10/19 00:41:12;;;;;;;22.50;11.30;;;;;;;;;;4989775;28;20741;-62
2021/10/19 00:43:40;;;;;;;29.25;12.27;;;;;;;;;;5019036;28;20030;-62
2021/10/19 00:46:07;;;;;;;28.90;11.98;;;;;;;;;;5023076;28;20154;-60
2021/10/19 00:48:38;;;;;;;27.38;12.60;;;;;;;;;;4975010;28;20025;-61
2021/10/19 00:51:09;;;;;;;26.70;12.50;;;;;;;;;;4987321;28;20921;-61
2021/10/19 00:53:34;;;;;;;26.67;13.02;;;;;;;;;;4989860;28;20029;-60
2021/10/19 00:56:00;;;;;;;28.98;11.80;;;;;;;;;;5005013;28;20456;-62
2021/10/19 00:58:28;;;;;;;22.95;12.52;;;;;;;;;;5021659;28;20100;-61
2021/10/19 01:00:58;;;;;;;26.05;12.38;;;;;;;;;;5009151;28;20505;-61
2021/10/19 01:03:26;;;;;;;27.67;11.57;;;;;;;;;;4990567;28;20025;-61
2021/10/19 01:05:52;;;;;;;24.70;12.27;;;;;;;;;;5005624;28;20039;-61
2021/10/19 01:08:23;;;;;;;26.45;12.18;;;;;;;;;;5006031;28;20061;-61
2021/10/19 01:10:51;;;;;;;27.55;11.55;;;;;;;;;;4991308;28;20029;-62
2021/10/19 01:13:17;;;;;;;27.60;12.90;;;;;;;;;;4999622;28;20035;-62
2021/10/19 01:15:48;;;;;;;34.35;12.80;;;;;;;;;;4983522;28;20042;-63
2021/10/19 01:18:17;;;;;;;25.70;12.07;;;;;;;;;;5020903;28;20103;-61
2021/10/19 01:20:43;;;;;;;24.08;11.23;;;;;;;;;;4985496;28;20025;-61
2021/10/19 01:23:09;;;;;;;31.67;12.93;;;;;;;;;;5021977;28;20024;-62
2021/10/19 01:25:39;;;;;;;20.75;12.10;;;;;;;;;;4977565;28;20691;-60
2021/10/19 01:28:10;;;;;;;30.48;12.70;;;;;;;;;;4985297;28;20038;-61
2021/10/19 01:30:46;;;;;;;26.30;13.15;;;;;;;;;;5021717;28;20033;-61
2021/10/19 01:33:12;;;;;;;31.75;12.10;;;;;;;;;;5021915;28;20024;-61
2021/10/19 01:35:42;;;;;;;24.80;11.80;;;;;;;;;;5003263;28;20029;-60
2021/10/19 01:38:16;;;;;;;21.52;11.57;;;;;;;;;;5019159;28;20057;-62
2021/10/19 01:40:44;;;;;;;26.27;11.95;;;;;;;;;;5017620;28;20056;-60
2021/10/19 01:43:10;;;;;;;25.67;12.10;;;;;;;;;;5004834;28;20037;-60
2021/10/19 01:45:36;;;;;;;28.13;12.60;;;;;;;;;;5018780;28;20031;-62
2021/10/19 01:48:05;;;;;;;21.83;11.27;;;;;;;;;;5011881;28;20048;-61
2021/10/19 01:50:33;;;;;;;24.48;11.73;;;;;;;;;;5006922;28;20476;-62
2021/10/19 01:52:59;;;;;;;26.55;11.85;;;;;;;;;;5005641;28;20924;-62
2021/10/19 01:55:27;;;;;;;23.38;11.13;;;;;;;;;;5003374;28;20039;-61
2021/10/19 01:57:55;;;;;;;21.60;10.52;;;;;;;;;;5001652;28;20784;-61
2021/10/19 02:00:23;;;;;;;27.38;11.82;;;;;;;;;;5002103;28;21158;-61
2021/10/19 02:02:51;;;;;;;22.98;11.82;;;;;;;;;;5003793;28;20029;-61
2021/10/19 02:05:16;;;;;;;28.00;12.32;;;;;;;;;;4990518;28;20479;-60
2021/10/19 02:07:41;;;;;;;21.60;10.27;;;;;;;;;;5005650;28;20033;-62
2021/10/19 02:10:14;;;;;;;25.95;11.65;;;;;;;;;;4985490;28;20033;-61
2021/10/19 02:12:40;;;;;;;26.13;10.77;;;;;;;;;;5020311;28;20422;-60
2021/10/19 02:15:07;;;;;;;31.13;12.20;;;;;;;;;;5022759;28;20979;-61
2021/10/19 02:17:33;;;;;;;28.50;12.55;;;;;;;;;;5019731;28;20568;-60
2021/10/19 02:20:00;;;;;;;26.67;12.25;;;;;;;;;;5000790;28;20030;-61
2021/10/19 02:22:31;;;;;;;26.33;11.30;;;;;;;;;;5000778;28;20037;-61
2021/10/19 02:24:58;;;;;;;22.95;11.45;;;;;;;;;;5021461;28;20029;-60
2021/10/19 02:27:26;;;;;;;24.75;11.57;;;;;;;;;;5002931;28;20115;-60
2021/10/19 02:29:53;;;;;;;25.40;11.65;;;;;;;;;;5022050;28;20046;-61
2021/10/19 02:32:19;;;;;;;25.45;11.73;;;;;;;;;;5019818;28;20030;-62
2021/10/19 02:34:49;;;;;;;24.00;11.98;;;;;;;;;;5004796;28;20037;-62
2021/10/19 02:37:14;;;;;;;23.90;11.43;;;;;;;;;;5004930;28;20045;-60
2021/10/19 02:39:42;;;;;;;28.30;11.48;;;;;;;;;;5019455;28;20922;-61
2021/10/19 02:42:10;;;;;;;26.95;12.45;;;;;;;;;;5020642;28;20041;-60
2021/10/19 02:44:35;;;;;;;21.23;11.60;;;;;;;;;;4997836;28;20036;-60
2021/10/19 02:47:00;;;;;;;24.27;11.88;;;;;;;;;;5002328;28;20156;-60
2021/10/19 02:49:28;;;;;;;23.27;11.82;;;;;;;;;;5004425;28;20060;-60
2021/10/19 02:51:56;;;;;;;30.70;12.23;;;;;;;;;;4988872;28;20049;-61
2021/10/19 02:54:22;;;;;;;21.20;11.55;;;;;;;;;;5008728;28;20836;-60
2021/10/19 02:56:54;;;;;;;26.90;12.30;;;;;;;;;;5008824;28;20124;-61
2021/10/19 02:59:22;;;;;;;23.48;11.70;;;;;;;;;;5010802;28;20033;-61
2021/10/19 03:01:48;;;;;;;26.92;11.82;;;;;;;;;;4992675;28;20543;-62
2021/10/19 03:04:14;;;;;;;24.23;11.60;;;;;;;;;;4986729;28;20040;-60
2021/10/19 03:06:41;;;;;;;25.70;11.45;;;;;;;;;;5025324;28;20093;-60
2021/10/19 03:09:07;;;;;;;21.55;10.90;;;;;;;;;;5023854;28;20033;-60
2021/10/19 03:11:34;;;;;;;21.95;10.98;;;;;;;;;;5024471;28;20036;-61
2021/10/19 03:13:59;;;;;;;28.23;12.73;;;;;;;;;;5007742;28;20048;-61
2021/10/19 03:16:25;;;;;;;25.35;12.65;;;;;;;;;;5023642;28;20033;-61
2021/10/19 03:18:50;;;;;;;28.50;12.50;;;;;;;;;;4991666;28;20041;-61
2021/10/19 03:21:18;;;;;;;30.55;12.77;;;;;;;;;;4992421;28;20025;-60
2021/10/19 03:23:46;;;;;;;23.85;11.95;;;;;;;;;;5007600;28;21212;-61
2021/10/19 03:26:12;;;;;;;21.48;11.18;;;;;;;;;;5025017;28;20021;-61
2021/10/19 03:28:38;;;;;;;22.75;11.07;;;;;;;;;;5004349;28;20089;-61
2021/10/19 03:31:04;;;;;;;24.77;11.57;;;;;;;;;;5007410;28;20039;-61
2021/10/19 03:33:32;;;;;;;23.23;11.90;;;;;;;;;;5004502;28;21892;-60
2021/10/19 03:35:57;;;;;;;27.65;12.25;;;;;;;;;;4991112;28;21354;-61
2021/10/19 03:38:23;;;;;;;24.15;12.43;;;;;;;;;;5002930;28;20128;-62
2021/10/19 03:40:48;;;;;;;23.13;11.88;;;;;;;;;;5008107;28;20496;-61
2021/10/19 03:43:15;;;;;;;20.33;11.20;;;;;;;;;;5022297;28;20029;-61
2021/10/19 03:45:40;;;;;;;23.10;11.68;;;;;;;;;;5022387;28;20033;-61
2021/10/19 03:48:05;;;;;;;24.13;11.25;;;;;;;;;;4986055;28;20034;-61
2021/10/19 03:50:36;;;;;;;21.30;11.85;;;;;;;;;;5012212;28;20086;-61
2021/10/19 03:53:03;;;;;;;23.98;11.02;;;;;;;;;;5006544;28;20895;-60
2021/10/19 03:55:32;;;;;;;21.58;11.40;;;;;;;;;;5024279;28;20071;-61
2021/10/19 03:58:00;;;;;;;25.38;11.63;;;;;;;;;;5011610;28;20128;-61
2021/10/19 04:00:25;;;;;;;21.83;10.57;;;;;;;;;;5021963;28;20036;-61
2021/10/19 04:02:51;;;;;;;21.17;11.07;;;;;;;;;;4985192;28;20037;-60
2021/10/19 04:05:17;;;;;;;21.58;11.13;;;;;;;;;;5005042;28;20044;-61
2021/10/19 04:07:44;;;;;;;20.52;11.13;;;;;;;;;;5003185;28;20130;-61
2021/10/19 04:10:12;;;;;;;25.20;10.50;;;;;;;;;;4976516;28;20037;-61
2021/10/19 04:12:41;;;;;;;19.90;10.90;;;;;;;;;;5023268;28;20026;-61
2021/10/19 04:15:11;;;;;;;19.55;11.13;;;;;;;;;;5004159;28;20037;-60
2021/10/19 04:17:36;;;;;;;21.70;11.23;;;;;;;;;;5008285;28;20017;-61
2021/10/19 04:20:02;;;;;;;21.55;10.98;;;;;;;;;;5003285;28;20047;-61
2021/10/19 04:22:32;;;;;;;23.98;11.30;;;;;;;;;;5021341;28;20021;-60
2021/10/19 04:24:59;;;;;;;21.38;10.48;;;;;;;;;;5021125;28;20040;-60
2021/10/19 04:27:29;;;;;;;21.45;11.10;;;;;;;;;;4988095;28;21179;-61
2021/10/19 04:29:57;;;;;;;20.75;10.73;;;;;;;;;;5005268;28;20372;-61
2021/10/19 04:32:25;;;;;;;24.30;11.73;;;;;;;;;;5001964;28;20887;-61
2021/10/19 04:34:53;;;;;;;20.92;10.90;;;;;;;;;;5021827;28;20041;-61
2021/10/19 04:37:21;;;;;;;23.27;11.60;;;;;;;;;;5023701;28;20024;-61
2021/10/19 04:39:47;;;;;;;22.70;10.35;;;;;;;;;;5007875;28;22290;-60
2021/10/19 04:42:15;;;;;;;20.75;10.60;;;;;;;;;;5005424;28;20025;-61
2021/10/19 04:44:41;;;;;;;19.27;10.75;;;;;;;;;;5007459;28;20029;-61
2021/10/19 04:47:08;;;;;;;20.15;11.18;;;;;;;;;;5021781;28;20112;-61
2021/10/19 04:49:39;;;;;;;20.98;11.18;;;;;;;;;;5021199;28;20098;-60
2021/10/19 04:52:07;;;;;;;24.92;11.50;;;;;;;;;;5004344;28;20041;-61
2021/10/19 04:54:32;;;;;;;25.58;11.52;;;;;;;;;;5004651;28;20033;-61
2021/10/19 04:57:00;;;;;;;19.13;10.70;;;;;;;;;;5021453;28;20650;-61
2021/10/19 04:59:27;;;;;;;20.58;10.98;;;;;;;;;;4990668;28;20587;-61
2021/10/19 05:01:53;;;;;;;20.13;10.20;;;;;;;;;;5021001;28;20063;-61
2021/10/19 05:04:18;;;;;;;22.77;11.85;;;;;;;;;;5021277;28;20051;-62
2021/10/19 05:06:44;;;;;;;21.27;10.55;;;;;;;;;;4974451;28;20059;-62
2021/10/19 05:09:12;;;;;;;22.50;11.35;;;;;;;;;;5020910;28;20033;-62
2021/10/19 05:11:39;;;;;;;24.88;12.30;;;;;;;;;;5024056;28;20629;-61
2021/10/19 05:14:05;;;;;;;25.98;12.48;;;;;;;;;;5004188;28;20396;-61
2021/10/19 05:16:30;;;;;;;32.58;11.35;;;;;;;;;;5002648;28;20061;-60
2021/10/19 05:18:55;;;;;;;21.95;11.35;;;;;;;;;;4989118;28;20089;-62
2021/10/19 05:21:21;;;;;;;28.75;12.35;;;;;;;;;;5000668;28;22018;-60
2021/10/19 05:23:48;;;;;;;24.67;12.00;;;;;;;;;;5005647;28;20075;-60
2021/10/19 05:26:14;;;;;;;22.58;11.80;;;;;;;;;;4992680;28;20037;-60
2021/10/19 05:28:39;;;;;;;24.42;11.90;;;;;;;;;;4973242;28;20041;-60
2021/10/19 05:31:07;;;;;;;25.58;12.02;;;;;;;;;;5003227;28;20043;-61
2021/10/19 05:33:32;;;;;;;30.27;12.10;;;;;;;;;;4990635;28;20096;-61
2021/10/19 05:36:01;;;;;;;29.00;14.13;;;;;;;;;;5004235;28;20037;-60
2021/10/19 05:38:26;;;;;;;25.15;13.30;;;;;;;;;;5021104;28;20029;-61
2021/10/19 05:40:54;;;;;;;26.63;13.23;;;;;;;;;;5003206;28;20041;-61
2021/10/19 05:43:22;;;;;;;21.38;12.05;;;;;;;;;;4995103;28;20029;-62
2021/10/19 05:45:50;;;;;;;27.48;13.48;;;;;;;;;;5019814;28;20876;-61
2021/10/19 05:48:15;;;;;;;23.15;12.38;;;;;;;;;;5018260;28;20033;-61
2021/10/19 05:50:43;;;;;;;32.45;14.95;;;;;;;;;;5020983;28;20033;-61
2021/10/19 05:53:12;;;;;;;25.85;12.90;;;;;;;;;;5004206;28;20546;-61
2021/10/19 05:55:37;;;;;;;30.83;12.27;;;;;;;;;;4988378;28;20052;-61
2021/10/19 05:58:04;;;;;;;29.63;13.70;;;;;;;;;;5022126;28;20116;-61
2021/10/19 06:00:29;;;;;;;29.23;14.10;;;;;;;;;;5021026;28;20431;-61
2021/10/19 06:02:58;;;;;;;29.08;12.98;;;;;;;;;;4999489;28;20021;-60
2021/10/19 06:05:23;;;;;;;23.67;13.07;;;;;;;;;;5004406;28;20393;-60
2021/10/19 06:07:53;;;;;;;31.90;13.73;;;;;;;;;;4988500;28;20037;-60
2021/10/19 06:10:21;;;;;;;30.73;14.40;;;;;;;;;;4988896;28;20060;-62
2021/10/19 06:12:47;;;;;;;32.05;15.40;;;;;;;;;;5021394;28;20843;-60
2021/10/19 06:15:16;;;;;;;37.05;14.90;;;;;;;;;;5001827;28;20032;-60
2021/10/19 06:17:41;;;;;;;30.33;14.52;;;;;;;;;;5020666;28;20029;-59
2021/10/19 06:20:08;;;;;;;27.83;13.73;;;;;;;;;;5004547;28;20040;-60
2021/10/19 06:22:38;;;;;;;29.20;14.38;;;;;;;;;;5005395;28;20090;-61
2021/10/19 06:25:06;;;;;;;29.30;14.85;;;;;;;;;;5003153;28;20033;-61
2021/10/19 06:27:33;;;;;;;36.17;15.48;;;;;;;;;;5022361;28;21107;-62
2021/10/19 06:30:01;;;;;;;33.47;16.20;;;;;;;;;;4989752;28;20034;-62
2021/10/19 06:32:26;;;;;;;32.83;14.63;;;;;;;;;;5014159;28;20040;-60
2021/10/19 06:34:52;;;;;;;41.95;15.80;;;;;;;;;;5024105;28;20056;-62
2021/10/19 06:37:24;;;;;;;39.20;16.23;;;;;;;;;;5024103;28;20396;-61
2021/10/19 06:39:52;;;;;;;35.00;16.67;;;;;;;;;;5003605;28;20049;-61
2021/10/19 06:42:20;;;;;;;34.65;15.57;;;;;;;;;;4991357;28;20039;-61
2021/10/19 06:44:48;;;;;;;32.95;15.25;;;;;;;;;;5022710;28;20528;-62
2021/10/19 06:47:21;;;;;;;32.95;15.20;;;;;;;;;;5008771;28;21371;-61
2021/10/19 06:49:52;;;;;;;31.55;16.45;;;;;;;;;;5022827;28;20201;-61
2021/10/19 06:52:17;;;;;;;35.05;15.88;;;;;;;;;;5012841;28;20163;-62
2021/10/19 06:54:45;;;;;;;33.47;15.80;;;;;;;;;;4992224;28;20029;-62
2021/10/19 06:57:11;;;;;;;33.85;15.32;;;;;;;;;;4985097;28;20040;-59
2021/10/19 06:59:37;;;;;;;33.85;15.07;;;;;;;;;;5022517;28;20033;-62
2021/10/19 07:02:03;;;;;;;41.08;16.52;;;;;;;;;;5023614;28;20102;-61
2021/10/19 07:04:28;;;;;;;34.30;14.68;;;;;;;;;;5023265;28;21036;-61
2021/10/19 07:06:56;;;;;;;31.73;16.40;;;;;;;;;;4989841;28;20017;-61
2021/10/19 07:09:24;;;;;;;33.58;15.43;;;;;;;;;;5007431;28;20068;-62
2021/10/19 07:11:51;;;;;;;35.75;15.35;;;;;;;;;;5021830;28;20036;-62
2021/10/19 07:14:19;;;;;;;30.70;15.80;;;;;;;;;;5002948;28;20044;-61
2021/10/19 07:16:47;;;;;;;33.35;15.43;;;;;;;;;;5003226;28;20059;-61
2021/10/19 07:19:15;;;;;;;36.25;15.25;;;;;;;;;;4991547;28;20034;-62
2021/10/19 07:21:40;;;;;;;35.55;14.45;;;;;;;;;;5022833;28;20552;-61
2021/10/19 07:24:06;;;;;;;30.52;14.68;;;;;;;;;;5009719;28;20043;-60
2021/10/19 07:26:35;;;;;;;34.90;16.20;;;;;;;;;;5004979;28;20106;-61
2021/10/19 07:29:03;;;;;;;30.98;14.68;;;;;;;;;;5002762;28;20025;-61
2021/10/19 07:31:28;;;;;;;30.63;13.88;;;;;;;;;;5023860;28;20043;-60
2021/10/19 07:33:56;;;;;;;30.27;13.80;;;;;;;;;;5023438;28;20113;-61
2021/10/19 07:36:25;;;;;;;33.25;14.73;;;;;;;;;;5024167;28;20036;-61
2021/10/19 07:38:52;;;;;;;31.83;14.05;;;;;;;;;;5004373;28;20045;-61
2021/10/19 07:41:22;;;;;;;27.58;13.55;;;;;;;;;;5022201;28;20049;-61
2021/10/19 07:43:47;;;;;;;22.52;12.25;;;;;;;;;;5023646;28;20029;-62
2021/10/19 07:46:13;;;;;;;25.25;13.48;;;;;;;;;;5008158;28;20075;-61
2021/10/19 07:48:38;;;;;;;25.70;12.95;;;;;;;;;;5022359;28;20037;-59
2021/10/19 07:51:04;;;;;;;23.45;12.45;;;;;;;;;;5004317;28;20029;-61
2021/10/19 07:53:29;;;;;;;21.10;12.55;;;;;;;;;;4998290;28;20049;-61
2021/10/19 07:56:00;;;;;;;27.38;13.07;;;;;;;;;;5006890;28;20028;-62
2021/10/19 07:58:28;;;;;;;19.60;13.05;;;;;;;;;;5023334;28;20029;-62
2021/10/19 08:00:55;;;;;;;24.70;12.77;;;;;;;;;;5024022;28;20112;-62
2021/10/19 08:03:21;;;;;;;28.38;13.00;;;;;;;;;;4992245;28;20025;-62
2021/10/19 08:05:47;;;;;;;26.73;12.23;;;;;;;;;;5008005;28;20076;-61
2021/10/19 08:08:13;;;;;;;23.33;11.35;;;;;;;;;;4976438;28;20090;-61
2021/10/19 08:10:40;;;;;;;23.30;12.82;;;;;;;;;;5004525;28;20201;-62
2021/10/19 08:13:11;;;;;;;22.13;12.57;;;;;;;;;;5007379;28;22019;-61
2021/10/19 08:15:39;;;;;;;21.15;11.77;;;;;;;;;;5006612;28;20049;-61
2021/10/19 08:18:08;;;;;;;24.17;12.15;;;;;;;;;;5007403;28;20033;-62
2021/10/19 08:20:35;;;;;;;24.23;11.68;;;;;;;;;;5006705;28;20025;-62
2021/10/19 08:23:06;;;;;;;25.00;11.95;;;;;;;;;;5005045;28;20171;-63
2021/10/19 08:25:32;;;;;;;22.48;11.52;;;;;;;;;;5024772;28;20048;-61
2021/10/19 08:28:00;;;;;;;21.33;12.15;;;;;;;;;;5022198;28;20021;-62
2021/10/19 08:30:29;;;;;;;27.38;12.70;;;;;;;;;;5024109;28;20045;-61
2021/10/19 08:32:54;;;;;;;20.92;11.90;;;;;;;;;;4985165;28;20021;-62
2021/10/19 08:35:22;;;;;;;24.60;12.35;;;;;;;;;;4991990;28;20064;-61
2021/10/19 08:37:50;;;;;;;17.52;11.43;;;;;;;;;;5002107;28;20025;-62
2021/10/19 08:40:19;;;;;;;19.75;11.10;;;;;;;;;;5007490;28;20045;-62
2021/10/19 08:42:51;;;;;;;17.73;11.13;;;;;;;;;;5002889;28;20159;-60
2021/10/19 08:45:20;;;;;;;17.35;10.88;;;;;;;;;;5003659;28;20118;-61
2021/10/19 08:47:50;;;;;;;22.58;10.57;;;;;;;;;;5007364;28;20029;-61
2021/10/19 08:50:17;;;;;;;18.95;11.13;;;;;;;;;;5020728;28;20063;-61
2021/10/19 08:52:49;;;;;;;19.85;11.00;;;;;;;;;;5020306;28;20046;-61
2021/10/19 08:55:15;;;;;;;18.25;11.27;;;;;;;;;;4990511;28;20030;-61
2021/10/19 08:57:43;;;;;;;20.83;10.68;;;;;;;;;;5002442;28;20036;-62
2021/10/19 09:00:12;;;;;;;17.60;10.18;;;;;;;;;;5004822;28;20033;-61
2021/10/19 09:02:42;;;;;;;22.73;10.75;;;;;;;;;;5004044;28;20056;-60
2021/10/19 09:05:14;;;;;;;16.85;10.38;;;;;;;;;;5023092;28;20039;-62
2021/10/19 09:07:59;;;;;;;18.52;11.02;;;;;;;;;;5022587;28;20448;-61
2021/10/19 09:10:30;;;;;;;19.33;11.77;;;;;;;;;;5022789;28;21880;-61
2021/10/19 09:12:57;;;;;;;18.05;10.70;;;;;;;;;;5022542;28;20036;-61
2021/10/19 09:15:28;;;;;;;18.48;10.45;;;;;;;;;;5021227;28;20022;-61
2021/10/19 09:17:59;;;;;;;20.30;10.82;;;;;;;;;;5021251;28;20028;-61
2021/10/19 09:20:24;;;;;;;18.98;11.30;;;;;;;;;;5022715;28;20025;-62
2021/10/19 09:22:53;;;;;;;20.08;10.25;;;;;;;;;;4980938;28;20889;-61
2021/10/19 09:25:25;;;;;;;23.52;10.73;;;;;;;;;;5002199;28;20774;-61
2021/10/19 09:27:52;;;;;;;17.92;10.80;;;;;;;;;;5007424;28;20041;-61
2021/10/19 09:30:17;;;;;;;17.77;10.27;;;;;;;;;;5004071;28;20025;-60
2021/10/19 09:32:51;;;;;;;17.65;10.77;;;;;;;;;;5018269;28;20130;-61
2021/10/19 09:35:22;;;;;;;18.27;10.63;;;;;;;;;;5023456;28;20111;-61
2021/10/19 09:38:20;;;;;;;20.45;11.30;;;;;;;;;;5001248;28;20037;-62
2021/10/19 09:40:50;;;;;;;14.57;9.55;;;;;;;;;;4970862;28;20045;-61
2021/10/19 09:43:22;;;;;;;16.85;10.75;;;;;;;;;;4986684;28;20124;-61
2021/10/19 09:45:50;;;;;;;18.10;10.57;;;;;;;;;;5005004;28;20099;-61
2021/10/19 09:48:19;;;;;;;21.98;9.85;;;;;;;;;;5004495;28;20028;-62
2021/10/19 09:50:49;;;;;;;21.02;10.18;;;;;;;;;;5019848;28;20029;-62
2021/10/19 09:53:17;;;;;;;20.65;10.70;;;;;;;;;;4988200;28;20044;-61
2021/10/19 09:55:44;;;;;;;15.73;9.77;;;;;;;;;;5001823;28;20021;-61
2021/10/19 09:58:12;;;;;;;17.48;9.27;;;;;;;;;;5021475;28;20585;-62
2021/10/19 10:00:38;;;;;;;17.88;10.20;;;;;;;;;;5020271;28;20021;-61
2021/10/19 10:03:09;;;;;;;20.60;8.57;;;;;;;;;;5020503;28;20025;-61
2021/10/19 10:05:34;;;;;;;17.70;9.43;;;;;;;;;;5001380;28;20029;-61
2021/10/19 10:08:02;;;;;;;12.38;8.00;;;;;;;;;;5005449;28;20143;-61
2021/10/19 10:10:35;;;;;;;15.63;7.40;;;;;;;;;;5021500;28;20037;-61
2021/10/19 10:13:03;;;;;;;11.63;7.85;;;;;;;;;;5020200;28;20029;-62
2021/10/19 10:15:35;;;;;;;10.70;7.00;;;;;;;;;;5000871;28;20085;-63
2021/10/19 10:18:02;;;;;;;9.68;6.43;;;;;;;;;;4990342;28;20030;-62
2021/10/19 10:20:34;;;;;;;9.45;5.70;;;;;;;;;;5002193;28;20032;-61
2021/10/19 10:23:35;;;;;;;10.00;5.88;;;;;;;;;;5002457;28;20056;-63
2021/10/19 10:26:20;;;;;;;12.48;6.43;;;;;;;;;;4961034;28;20058;-61
2021/10/19 10:28:45;;;;;;;10.38;6.10;;;;;;;;;;5014229;28;20831;-63
2021/10/19 10:31:18;;;;;;;8.70;6.10;;;;;;;;;;5002107;28;20079;-62
2021/10/19 10:33:47;;;;;;;8.82;5.40;;;;;;;;;;5018985;28;20144;-61
2021/10/19 10:36:16;;;;;;;9.15;6.13;;;;;;;;;;4987109;28;20036;-60
2021/10/19 10:38:53;;;;;;;8.25;5.13;;;;;;;;;;5000754;28;20128;-61
2021/10/19 10:41:18;;;;;;;8.75;4.90;;;;;;;;;;5020491;28;20060;-60
2021/10/19 10:43:45;;;;;;;9.90;5.20;;;;;;;;;;5002351;28;20028;-61
2021/10/19 10:46:19;;;;;;;7.07;5.03;;;;;;;;;;5003803;28;20607;-61
2021/10/19 10:48:47;;;;;;;12.57;5.65;;;;;;;;;;4987848;28;20041;-61
2021/10/19 10:51:16;;;;;;;8.50;5.43;;;;;;;;;;5002365;28;20071;-62
2021/10/19 10:53:44;;;;;;;7.78;4.88;;;;;;;;;;5018073;28;20032;-61
2021/10/19 10:56:10;;;;;;;7.90;4.60;;;;;;;;;;5021488;28;20106;-62
2021/10/19 10:58:37;;;;;;;7.10;4.68;;;;;;;;;;5001464;28;20056;-60
2021/10/19 11:01:21;;;;;;;6.45;4.15;;;;;;;;;;5004335;28;20025;-61
2021/10/19 11:03:59;;;;;;;6.60;4.90;;;;;;;;;;5018235;28;20079;-60
2021/10/19 11:06:25;;;;;;;6.97;4.82;;;;;;;;;;5019224;28;20029;-61
2021/10/19 11:08:58;;;;;;;6.85;4.80;;;;;;;;;;4988041;28;20040;-61
2021/10/19 11:11:24;;;;;;;6.82;4.78;;;;;;;;;;5004318;28;20037;-61
2021/10/19 11:13:54;;;;;;;8.25;5.00;;;;;;;;;;4987573;28;20126;-61
2021/10/19 11:16:31;;;;;;;8.73;4.88;;;;;;;;;;4996441;28;20590;-60
2021/10/19 11:18:56;;;;;;;7.65;5.47;;;;;;;;;;4990913;28;20029;-61
2021/10/19 11:21:22;;;;;;;11.63;5.90;;;;;;;;;;5024092;28;20625;-62
2021/10/19 11:23:51;;;;;;;9.82;6.15;;;;;;;;;;5004186;28;20035;-61
2021/10/19 11:26:18;;;;;;;8.85;5.55;;;;;;;;;;5005717;28;20888;-59
2021/10/19 11:28:46;;;;;;;8.55;5.28;;;;;;;;;;5003303;28;20033;-61
2021/10/19 11:31:12;;;;;;;8.23;5.45;;;;;;;;;;5023984;28;20029;-59
2021/10/19 11:33:39;;;;;;;7.88;6.00;;;;;;;;;;5021974;28;20037;-60
2021/10/19 11:36:06;;;;;;;7.72;5.20;;;;;;;;;;5024117;28;20037;-60
2021/10/19 11:38:32;;;;;;;6.15;4.75;;;;;;;;;;5022667;28;20041;-60
2021/10/19 11:41:12;;;;;;;6.45;4.85;;;;;;;;;;5022859;28;20101;-61
2021/10/19 11:43:39;;;;;;;8.75;5.22;;;;;;;;;;5008061;28;20032;-60
2021/10/19 11:46:08;;;;;;;10.25;4.78;;;;;;;;;;4993421;28;20075;-60
2021/10/19 11:48:37;;;;;;;7.38;5.30;;;;;;;;;;4991316;28;20044;-60
2021/10/19 11:51:02;;;;;;;6.60;4.93;;;;;;;;;;5024641;28;20099;-60
2021/10/19 11:53:29;;;;;;;6.97;4.88;;;;;;;;;;5023188;28;20996;-60
2021/10/19 11:55:55;;;;;;;6.53;4.82;;;;;;;;;;5001985;28;20035;-60
2021/10/19 11:58:23;;;;;;;8.10;4.93;;;;;;;;;;5006356;28;20048;-60
2021/10/19 12:00:51;;;;;;;7.13;5.22;;;;;;;;;;5013993;28;20123;-60
2021/10/19 12:03:17;;;;;;;5.60;4.80;;;;;;;;;;5023193;28;20033;-60
2021/10/19 12:05:43;;;;;;;7.13;5.03;;;;;;;;;;5023712;28;20043;-60
2021/10/19 12:08:12;;;;;;;5.75;4.25;;;;;;;;;;5004903;28;20120;-61
2021/10/19 12:10:46;;;;;;;5.82;4.68;;;;;;;;;;5009688;28;20039;-62
2021/10/19 12:13:15;;;;;;;4.82;4.05;;;;;;;;;;5026973;28;20041;-60
2021/10/19 12:15:43;;;;;;;5.30;4.18;;;;;;;;;;5021545;28;20118;-60
2021/10/19 12:18:15;;;;;;;5.50;4.53;;;;;;;;;;5022163;28;20029;-61
2021/10/19 12:20:41;;;;;;;6.72;4.57;;;;;;;;;;5021301;28;20044;-62
2021/10/19 12:23:10;;;;;;;5.40;4.05;;;;;;;;;;5002222;28;20718;-60
2021/10/19 12:25:46;;;;;;;9.63;5.05;;;;;;;;;;5022991;28;20040;-60
2021/10/19 12:28:20;;;;;;;6.25;4.50;;;;;;;;;;5006334;28;22132;-60
2021/10/19 12:30:48;;;;;;;8.27;4.20;;;;;;;;;;5023049;28;20041;-61
2021/10/19 12:33:19;;;;;;;5.35;3.83;;;;;;;;;;5007510;28;20146;-60
2021/10/19 12:35:48;;;;;;;4.88;3.80;;;;;;;;;;5021942;28;20109;-60
2021/10/19 12:38:14;;;;;;;9.32;4.72;;;;;;;;;;5022128;28;20069;-60
2021/10/19 12:40:45;;;;;;;6.45;3.72;;;;;;;;;;5002438;28;20136;-60
2021/10/19 12:43:11;;;;;;;6.10;4.15;;;;;;;;;;5021984;28;20135;-60
2021/10/19 12:45:36;;;;;;;4.55;3.95;;;;;;;;;;4987259;28;20025;-60
2021/10/19 12:48:08;;;;;;;3.95;3.45;;;;;;;;;;5021822;28;20108;-61
2021/10/19 12:50:38;;;;;;;4.30;3.50;;;;;;;;;;5022852;28;20116;-60
2021/10/19 12:53:05;;;;;;;5.47;3.47;;;;;;;;;;5003303;28;20025;-60
2021/10/19 12:55:31;;;;;;;6.40;4.00;;;;;;;;;;5003158;28;20041;-60
2021/10/19 12:57:59;;;;;;;4.63;3.75;;;;;;;;;;5014129;28;20037;-60
2021/10/19 13:00:26;;;;;;;6.00;3.30;;;;;;;;;;5019841;28;20025;-60
2021/10/19 13:02:54;;;;;;;4.55;3.65;;;;;;;;;;5021904;28;20075;-61
2021/10/19 13:05:24;;;;;;;4.95;3.45;;;;;;;;;;4991235;28;20144;-60
2021/10/19 13:07:52;;;;;;;6.00;4.13;;;;;;;;;;5022356;28;20111;-60
2021/10/19 13:10:17;;;;;;;5.60;3.90;;;;;;;;;;5006344;28;20044;-60
2021/10/19 13:12:45;;;;;;;7.47;4.60;;;;;;;;;;5005936;28;20057;-59
2021/10/19 13:15:10;;;;;;;4.82;3.40;;;;;;;;;;5004665;28;20440;-59
2021/10/19 13:17:39;;;;;;;6.72;3.50;;;;;;;;;;5021707;28;20379;-60
2021/10/19 13:20:07;;;;;;;5.63;3.63;;;;;;;;;;5021803;28;20021;-59
2021/10/19 13:22:35;;;;;;;7.05;3.60;;;;;;;;;;5021694;28;20040;-59
2021/10/19 13:25:06;;;;;;;4.72;3.25;;;;;;;;;;5022742;28;20630;-59
2021/10/19 13:27:34;;;;;;;5.70;3.38;;;;;;;;;;5023633;28;20060;-59
2021/10/19 13:30:02;;;;;;;6.35;3.47;;;;;;;;;;5010646;28;20071;-58
2021/10/19 13:32:27;;;;;;;8.30;4.43;;;;;;;;;;5021488;28;20035;-59
2021/10/19 13:34:53;;;;;;;8.52;5.70;;;;;;;;;;5021299;28;20028;-59
2021/10/19 13:37:21;;;;;;;7.25;4.55;;;;;;;;;;4989958;28;20029;-59
2021/10/19 13:39:49;;;;;;;5.82;3.95;;;;;;;;;;5004833;28;20066;-61
2021/10/19 13:42:16;;;;;;;8.75;4.60;;;;;;;;;;5022168;28;20032;-58
2021/10/19 13:44:41;;;;;;;6.63;4.10;;;;;;;;;;5021160;28;20048;-59
2021/10/19 13:47:12;;;;;;;8.32;4.13;;;;;;;;;;5022206;28;20024;-58
2021/10/19 13:49:39;;;;;;;5.72;3.60;;;;;;;;;;5006247;28;20185;-58
2021/10/19 13:52:07;;;;;;;5.95;2.88;;;;;;;;;;5021291;28;20017;-58
2021/10/19 13:54:35;;;;;;;4.10;3.17;;;;;;;;;;4999769;28;20041;-59
2021/10/19 13:57:01;;;;;;;4.53;3.42;;;;;;;;;;4988734;28;20041;-58
2021/10/19 13:59:27;;;;;;;5.28;2.72;;;;;;;;;;5020945;28;20103;-59
2021/10/19 14:01:54;;;;;;;4.85;3.30;;;;;;;;;;4988630;28;20082;-58
2021/10/19 14:04:20;;;;;;;9.35;4.55;;;;;;;;;;5020907;28;20033;-59
2021/10/19 14:06:48;;;;;;;11.40;5.07;;;;;;;;;;5005488;28;20029;-58
2021/10/19 14:09:14;;;;;;;15.77;7.30;;;;;;;;;;5002449;28;20036;-59
2021/10/19 14:11:41;;;;;;;24.35;8.57;;;;;;;;;;5021271;28;20028;-62
2021/10/19 14:14:12;;;;;;;22.35;8.38;;;;;;;;;;5020523;28;20032;-58
2021/10/19 14:16:38;;;;;;;24.00;10.30;;;;;;;;;;5022247;28;20041;-59
2021/10/19 14:19:04;;;;;;;20.17;10.13;;;;;;;;;;5001762;28;20050;-60
2021/10/19 14:21:33;;;;;;;33.03;9.98;;;;;;;;;;5020248;28;20047;-59
2021/10/19 14:23:59;;;;;;;17.73;8.18;;;;;;;;;;5004296;28;20037;-60
2021/10/19 14:26:27;;;;;;;21.52;8.68;;;;;;;;;;5006119;28;20711;-59
2021/10/19 14:28:55;;;;;;;15.85;8.23;;;;;;;;;;4999357;28;20536;-60